sensor_id;sensor_type;location;lat;lon;timestamp;temperature;humidity
76750;DHT22;66447;35.844;14.468;2023-08-31T00:10:57;29.46;118.99
76750;DHT22;66447;35.844;14.468;2023-08-31T00:25:58;29.51;118.99
76750;DHT22;66447;35.844;14.468;2023-08-31T00:41:00;29.92;118.99
76750;DHT22;66447;35.844;14.468;2023-08-31T00:56:00;31.13;118.99
76750;DHT22;66447;35.844;14.468;2023-08-31T01:26:17;31.96;53.12
76750;DHT22;66447;35.844;14.468;2023-08-31T01:41:19;32.43;42.10
76750;DHT22;66447;35.844;14.468;2023-08-31T01:56:23;32.47;43.62
76750;DHT22;66447;35.844;14.468;2023-08-31T02:11:24;32.16;46.16
76750;DHT22;66447;35.844;14.468;2023-08-31T02:26:24;32.02;56.76
76750;DHT22;66447;35.844;14.468;2023-08-31T02:41:25;31.00;100.24
76750;DHT22;66447;35.844;14.468;2023-08-31T02:56:26;32.91;41.60
76750;DHT22;66447;35.844;14.468;2023-08-31T03:11:27;33.85;5.92
76750;DHT22;66447;35.844;14.468;2023-08-31T03:26:27;32.93;37.01
76750;DHT22;66447;35.844;14.468;2023-08-31T03:41:28;32.72;38.61
76750;DHT22;66447;35.844;14.468;2023-08-31T03:56:29;32.19;74.12
76750;DHT22;66447;35.844;14.468;2023-08-31T04:11:30;32.62;60.72
76750;DHT22;66447;35.844;14.468;2023-08-31T04:26:31;31.73;107.79
76750;DHT22;66447;35.844;14.468;2023-08-31T04:41:32;32.34;85.53
76750;DHT22;66447;35.844;14.468;2023-08-31T04:56:33;33.94;34.76
76750;DHT22;66447;35.844;14.468;2023-08-31T05:11:34;33.43;35.37
76750;DHT22;66447;35.844;14.468;2023-08-31T05:26:34;32.17;81.54
76750;DHT22;66447;35.844;14.468;2023-08-31T05:41:35;32.75;65.62
76750;DHT22;66447;35.844;14.468;2023-08-31T05:56:36;32.14;92.32
76750;DHT22;66447;35.844;14.468;2023-08-31T06:11:38;31.10;118.99
76750;DHT22;66447;35.844;14.468;2023-08-31T06:26:39;32.42;118.99
76750;DHT22;66447;35.844;14.468;2023-08-31T06:41:40;32.00;118.99
76750;DHT22;66447;35.844;14.468;2023-08-31T06:56:41;33.66;57.84
76750;DHT22;66447;35.844;14.468;2023-08-31T07:11:45;33.88;49.79
76750;DHT22;66447;35.844;14.468;2023-08-31T07:26:46;33.34;71.08
76750;DHT22;66447;35.844;14.468;2023-08-31T07:41:47;34.81;29.77
76750;DHT22;66447;35.844;14.468;2023-08-31T07:56:48;33.35;67.89
76750;DHT22;66447;35.844;14.468;2023-08-31T08:11:49;33.75;68.29
76750;DHT22;66447;35.844;14.468;2023-08-31T08:26:51;35.70;15.45
76750;DHT22;66447;35.844;14.468;2023-08-31T08:41:54;34.99;10.30
76750;DHT22;66447;35.844;14.468;2023-08-31T08:56:57;36.28;-6.00
76750;DHT22;66447;35.844;14.468;2023-08-31T09:12:06;36.46;4.27
76750;DHT22;66447;35.844;14.468;2023-08-31T09:27:08;34.42;39.72
76750;DHT22;66447;35.844;14.468;2023-08-31T09:42:09;36.59;-6.00
76750;DHT22;66447;35.844;14.468;2023-08-31T09:57:10;35.68;-6.00
76750;DHT22;66447;35.844;14.468;2023-08-31T10:12:14;35.14;19.29
76750;DHT22;66447;35.844;14.468;2023-08-31T10:27:19;34.80;37.05
76750;DHT22;66447;35.844;14.468;2023-08-31T10:42:23;32.54;118.99
76750;DHT22;66447;35.844;14.468;2023-08-31T10:57:30;33.91;75.72
76750;DHT22;66447;35.844;14.468;2023-08-31T11:12:32;32.52;118.99
76750;DHT22;66447;35.844;14.468;2023-08-31T11:27:33;32.16;118.99
76750;DHT22;66447;35.844;14.468;2023-08-31T11:42:33;28.44;118.99
76750;DHT22;66447;35.844;14.468;2023-08-31T11:57:34;30.77;118.99
76750;DHT22;66447;35.844;14.468;2023-08-31T12:12:35;27.50;118.99
76750;DHT22;66447;35.844;14.468;2023-08-31T12:27:37;28.92;118.99
76750;DHT22;66447;35.844;14.468;2023-08-31T12:42:38;30.17;80.18
76750;DHT22;66447;35.844;14.468;2023-08-31T12:57:38;29.60;118.99
76750;DHT22;66447;35.844;14.468;2023-08-31T13:12:39;30.65;83.87
76750;DHT22;66447;35.844;14.468;2023-08-31T13:27:40;29.23;118.99
76750;DHT22;66447;35.844;14.468;2023-08-31T13:58:07;28.54;110.73
76750;DHT22;66447;35.844;14.468;2023-08-31T14:13:08;29.63;49.11
76750;DHT22;66447;35.844;14.468;2023-08-31T14:28:09;29.11;99.12
76750;DHT22;66447;35.844;14.468;2023-08-31T14:43:10;32.56;9.12
76750;DHT22;66447;35.844;14.468;2023-08-31T14:58:11;31.56;23.37
76750;DHT22;66447;35.844;14.468;2023-08-31T15:13:12;34.69;-6.00
76750;DHT22;66447;35.844;14.468;2023-08-31T15:28:13;33.33;-6.00
76750;DHT22;66447;35.844;14.468;2023-08-31T15:43:14;32.94;-6.00
76750;DHT22;66447;35.844;14.468;2023-08-31T15:58:16;34.03;-6.00
76750;DHT22;66447;35.844;14.468;2023-08-31T16:13:17;34.61;-6.00
76750;DHT22;66447;35.844;14.468;2023-08-31T16:28:18;33.36;-6.00
76750;DHT22;66447;35.844;14.468;2023-08-31T16:43:19;34.14;-6.00
76750;DHT22;66447;35.844;14.468;2023-08-31T16:58:20;30.89;-6.00
76750;DHT22;66447;35.844;14.468;2023-08-31T17:13:20;32.01;-3.70
76750;DHT22;66447;35.844;14.468;2023-08-31T17:28:21;30.13;56.06
76750;DHT22;66447;35.844;14.468;2023-08-31T17:43:22;29.75;88.26
76750;DHT22;66447;35.844;14.468;2023-08-31T17:58:23;29.08;118.99
76750;DHT22;66447;35.844;14.468;2023-08-31T18:13:24;29.58;118.99
76750;DHT22;66447;35.844;14.468;2023-08-31T18:28:24;30.39;118.99
76750;DHT22;66447;35.844;14.468;2023-08-31T18:43:27;30.94;118.99
76750;DHT22;66447;35.844;14.468;2023-08-31T18:58:28;31.24;118.99
76750;DHT22;66447;35.844;14.468;2023-08-31T19:13:29;30.06;118.99
76750;DHT22;66447;35.844;14.468;2023-08-31T19:28:32;30.12;118.99
76750;DHT22;66447;35.844;14.468;2023-08-31T19:43:33;27.94;118.99
76750;DHT22;66447;35.844;14.468;2023-08-31T19:58:34;28.62;118.99
76750;DHT22;66447;35.844;14.468;2023-08-31T20:13:38;29.67;118.99
76750;DHT22;66447;35.844;14.468;2023-08-31T20:28:39;29.96;118.99
76750;DHT22;66447;35.844;14.468;2023-08-31T20:43:39;30.37;118.99
76750;DHT22;66447;35.844;14.468;2023-08-31T20:58:40;29.58;118.99
76750;DHT22;66447;35.844;14.468;2023-08-31T21:13:41;29.18;118.99
76750;DHT22;66447;35.844;14.468;2023-08-31T21:28:41;29.57;118.99
76750;DHT22;66447;35.844;14.468;2023-08-31T21:43:42;29.42;118.99
76750;DHT22;66447;35.844;14.468;2023-08-31T21:58:43;31.31;103.12
76750;DHT22;66447;35.844;14.468;2023-08-31T22:13:45;30.56;118.99
76750;DHT22;66447;35.844;14.468;2023-08-31T22:28:46;29.58;118.99
76750;DHT22;66447;35.844;14.468;2023-08-31T22:43:46;31.09;69.87
76750;DHT22;66447;35.844;14.468;2023-08-31T22:58:47;29.44;118.99
76750;DHT22;66447;35.844;14.468;2023-08-31T23:13:48;29.60;118.99
76750;DHT22;66447;35.844;14.468;2023-08-31T23:28:50;30.33;87.30
76750;DHT22;66447;35.844;14.468;2023-08-31T23:43:51;29.51;115.15
76750;DHT22;66447;35.844;14.468;2023-08-31T23:58:53;30.44;69.97
